createdAt,value
2018-11-12T00:01:08.401Z,1.57
2018-11-12T00:03:37.192Z,1.93
2018-11-12T00:06:06.151Z,2.10
2018-11-12T00:08:34.686Z,2.60
2018-11-12T00:11:03.104Z,1.20
2018-11-12T00:13:31.502Z,4.55
2018-11-12T00:15:59.922Z,2.33
2018-11-12T00:18:28.597Z,2.87
2018-11-12T00:20:57.195Z,2.27
2018-11-12T00:23:25.651Z,2.70
2018-11-12T00:25:57.049Z,6.83
2018-11-12T00:28:25.608Z,3.20
2018-11-12T00:30:54.185Z,7.10
2018-11-12T00:33:22.703Z,2.20
2018-11-12T00:35:51.424Z,5.20
2018-11-12T00:38:19.905Z,3.70
2018-11-12T00:40:48.423Z,2.60
2018-11-12T00:43:16.875Z,2.30
2018-11-12T00:45:45.382Z,2.37
2018-11-12T00:48:13.968Z,5.00
2018-11-12T00:50:42.623Z,5.53
2018-11-12T00:53:11.127Z,4.35
2018-11-12T00:55:39.681Z,2.60
2018-11-12T00:58:08.314Z,1.82
2018-11-12T01:00:36.796Z,3.90
2018-11-12T01:03:05.903Z,6.08
2018-11-12T01:05:34.433Z,4.43
2018-11-12T01:08:02.841Z,3.67
2018-11-12T01:10:37.987Z,10.60
2018-11-12T01:13:06.524Z,2.57
2018-11-12T01:15:35.020Z,2.08
2018-11-12T01:18:03.481Z,2.40
2018-11-12T01:20:31.984Z,2.40
2018-11-12T01:23:00.556Z,2.00
2018-11-12T01:25:29.098Z,1.70
2018-11-12T01:27:57.513Z,2.35
2018-11-12T01:30:25.933Z,2.30
2018-11-12T01:32:54.389Z,2.20
2018-11-12T01:35:23.028Z,2.93
2018-11-12T01:37:51.623Z,2.40
2018-11-12T01:40:20.318Z,3.23
2018-11-12T01:42:48.777Z,3.03
2018-11-12T01:45:18.776Z,2.80
2018-11-12T01:47:48.593Z,1.60
2018-11-12T01:50:22.650Z,2.93
2018-11-12T01:52:51.227Z,1.47
2018-11-12T01:55:20.087Z,4.90
2018-11-12T01:57:48.588Z,3.70
2018-11-12T02:00:21.561Z,5.33
2018-11-12T02:02:51.219Z,2.87
2018-11-12T02:05:20.039Z,2.13
2018-11-12T02:07:48.674Z,2.60
2018-11-12T02:10:18.352Z,3.25
2018-11-12T02:12:46.929Z,1.67
2018-11-12T02:15:18.167Z,1.50
2018-11-12T02:17:47.285Z,2.50
2018-11-12T02:20:17.126Z,1.77
2018-11-12T02:22:46.682Z,7.67
2018-11-12T02:25:15.798Z,3.50
2018-11-12T02:27:44.173Z,1.70
2018-11-12T02:30:14.892Z,1.52
2018-11-12T02:32:43.533Z,2.00
2018-11-12T02:35:12.084Z,3.50
2018-11-12T02:37:41.014Z,2.10
2018-11-12T02:40:11.880Z,2.40
2018-11-12T02:42:40.800Z,4.30
2018-11-12T02:45:10.477Z,1.90
2018-11-12T02:47:39.294Z,2.37
2018-11-12T02:50:09.037Z,1.73
2018-11-12T02:52:37.489Z,2.08
2018-11-12T02:55:07.607Z,2.23
2018-11-12T02:57:36.174Z,1.13
2018-11-12T03:00:07.784Z,1.03
2018-11-12T03:02:36.159Z,1.47
2018-11-12T03:05:05.013Z,2.40
2018-11-12T03:07:33.498Z,2.57
2018-11-12T03:10:02.031Z,2.50
2018-11-12T03:12:30.504Z,1.17
2018-11-12T03:14:58.987Z,1.10
2018-11-12T03:17:27.505Z,1.73
2018-11-12T03:19:55.929Z,3.70
2018-11-12T03:22:24.441Z,1.22
2018-11-12T03:24:52.814Z,2.30
2018-11-12T03:27:21.419Z,1.30
2018-11-12T03:29:49.954Z,3.67
2018-11-12T03:32:18.568Z,1.50
2018-11-12T03:34:47.032Z,3.20
2018-11-12T03:37:15.537Z,4.40
2018-11-12T03:39:44.041Z,2.53
2018-11-12T03:42:12.495Z,0.97
2018-11-12T03:44:41.021Z,6.83
2018-11-12T03:47:09.498Z,1.57
2018-11-12T03:49:43.491Z,3.10
2018-11-12T03:52:11.914Z,2.13
2018-11-12T03:54:40.611Z,1.17
2018-11-12T03:57:09.100Z,0.90
2018-11-12T03:59:37.768Z,3.07
2018-11-12T04:02:06.646Z,1.40
2018-11-12T04:04:35.144Z,1.30
2018-11-12T04:07:03.581Z,2.07
2018-11-12T04:09:32.202Z,2.13
2018-11-12T04:12:00.676Z,3.70
2018-11-12T04:14:29.172Z,2.17
2018-11-12T04:16:57.612Z,2.17
2018-11-12T04:19:26.095Z,1.40
2018-11-12T04:21:54.529Z,3.17
2018-11-12T04:24:23.031Z,1.80
2018-11-12T04:26:51.544Z,2.27
2018-11-12T04:29:20.164Z,1.47
2018-11-12T04:31:48.882Z,1.32
2018-11-12T04:34:17.242Z,1.77
2018-11-12T04:36:53.788Z,6.53
2018-11-12T04:39:22.058Z,1.97
2018-11-12T04:41:50.608Z,1.40
2018-11-12T04:44:19.236Z,1.73
2018-11-12T04:46:47.773Z,6.50
2018-11-12T04:49:16.284Z,2.70
2018-11-12T04:51:52.901Z,1.53
2018-11-12T04:54:21.245Z,1.20
2018-11-12T04:56:49.612Z,3.80
2018-11-12T04:59:18.136Z,1.30
2018-11-12T05:01:58.781Z,1.50
2018-11-12T05:04:27.283Z,6.83
2018-11-12T05:06:55.967Z,2.67
2018-11-12T05:09:32.059Z,2.27
2018-11-12T05:12:00.325Z,2.03
2018-11-12T05:14:29.043Z,3.00
2018-11-12T05:16:58.027Z,2.03
2018-11-12T05:19:26.813Z,3.30
2018-11-12T05:21:55.859Z,3.00
2018-11-12T05:24:24.136Z,3.35
2018-11-12T05:26:52.572Z,7.20
2018-11-12T05:29:21.094Z,4.65
2018-11-12T05:31:49.340Z,3.67
2018-11-12T05:34:17.609Z,13.53
2018-11-12T05:36:46.393Z,5.83
2018-11-12T05:39:14.678Z,1.73
2018-11-12T05:41:42.894Z,2.40
2018-11-12T05:44:11.174Z,1.63
2018-11-12T05:46:39.495Z,1.63
2018-11-12T05:49:07.794Z,4.17
2018-11-12T05:51:36.097Z,5.40
2018-11-12T05:54:04.598Z,4.43
2018-11-12T05:56:33.253Z,5.13
2018-11-12T05:59:02.178Z,4.20
2018-11-12T06:01:30.870Z,2.60
2018-11-12T06:03:59.687Z,8.13
2018-11-12T06:06:28.375Z,4.75
2018-11-12T06:08:57.202Z,4.87
2018-11-12T06:11:25.978Z,3.17
2018-11-12T06:13:54.853Z,2.73
2018-11-12T06:16:23.437Z,6.33
2018-11-12T06:18:52.330Z,7.15
2018-11-12T06:21:21.181Z,6.50
2018-11-12T06:23:49.987Z,2.50
2018-11-12T06:26:18.888Z,5.72
2018-11-12T06:28:47.165Z,5.12
2018-11-12T06:31:15.528Z,3.10
2018-11-12T06:33:43.774Z,3.30
2018-11-12T06:36:12.069Z,5.28
2018-11-12T06:38:40.336Z,6.20
2018-11-12T06:41:08.731Z,8.35
2018-11-12T06:43:37.040Z,3.03
2018-11-12T06:46:05.880Z,5.70
2018-11-12T06:48:34.289Z,4.17
2018-11-12T06:51:02.562Z,5.12
2018-11-12T06:53:30.868Z,5.05
2018-11-12T06:55:59.112Z,5.75
2018-11-12T06:58:27.424Z,3.98
2018-11-12T07:00:55.761Z,3.47
2018-11-12T07:03:24.011Z,5.95
2018-11-12T07:05:52.267Z,3.37
2018-11-12T07:08:27.579Z,5.83
2018-11-12T07:10:55.894Z,4.12
2018-11-12T07:13:24.271Z,5.30
2018-11-12T07:15:52.459Z,3.15
2018-11-12T07:18:20.675Z,5.10
2018-11-12T07:20:48.996Z,2.92
2018-11-12T07:23:17.259Z,4.77
2018-11-12T07:25:45.532Z,4.00
2018-11-12T07:28:13.784Z,2.83
2018-11-12T07:30:42.054Z,3.70
2018-11-12T07:33:10.203Z,2.60
2018-11-12T07:35:38.452Z,4.07
2018-11-12T07:38:06.730Z,3.40
2018-11-12T07:40:34.983Z,6.67
2018-11-12T07:43:03.316Z,5.57
2018-11-12T07:45:31.538Z,3.60
2018-11-12T07:48:00.003Z,5.67
2018-11-12T07:50:29.635Z,11.67
2018-11-12T07:52:57.917Z,6.08
2018-11-12T07:55:27.285Z,7.60
2018-11-12T07:57:56.297Z,12.23
2018-11-12T08:00:27.927Z,5.80
2018-11-12T08:03:01.743Z,6.70
2018-11-12T08:05:29.930Z,7.77
2018-11-12T08:07:58.131Z,6.07
2018-11-12T08:10:26.427Z,5.70
2018-11-12T08:12:54.800Z,4.60
2018-11-12T08:15:23.092Z,7.73
2018-11-12T08:17:51.348Z,6.13
2018-11-12T08:20:21.099Z,3.93
2018-11-12T08:22:50.269Z,3.60
2018-11-12T08:25:18.556Z,3.20
2018-11-12T08:27:47.403Z,4.17
2018-11-12T08:30:21.069Z,7.67
2018-11-12T08:32:50.499Z,5.03
2018-11-12T08:35:18.804Z,9.73
2018-11-12T08:37:47.714Z,4.80
2018-11-12T08:40:17.533Z,7.90
2018-11-12T08:42:45.815Z,8.83
2018-11-12T08:45:14.273Z,6.33
2018-11-12T08:47:43.886Z,12.57
2018-11-12T08:50:14.121Z,9.43
2018-11-12T08:52:43.621Z,6.97
2018-11-12T08:55:14.566Z,8.13
2018-11-12T08:57:44.487Z,5.30
2018-11-12T09:00:13.251Z,9.83
2018-11-12T09:02:42.262Z,7.70
2018-11-12T09:05:11.955Z,7.03
2018-11-12T09:07:41.288Z,6.13
2018-11-12T09:10:14.814Z,3.80
2018-11-12T09:12:43.549Z,6.73
2018-11-12T09:15:12.219Z,6.47
2018-11-12T09:17:41.319Z,8.87
2018-11-12T09:20:11.640Z,3.00
2018-11-12T09:22:39.935Z,2.43
2018-11-12T09:25:18.635Z,4.03
2018-11-12T09:27:47.020Z,5.43
2018-11-12T09:30:17.534Z,2.43
2018-11-12T09:32:46.212Z,4.70
2018-11-12T09:35:17.395Z,4.40
2018-11-12T09:37:46.857Z,3.27
2018-11-12T09:40:21.655Z,3.93
2018-11-12T09:42:50.052Z,6.13
2018-11-12T09:45:18.295Z,5.80
2018-11-12T09:47:46.916Z,6.73
2018-11-12T09:50:16.366Z,4.90
2018-11-12T09:52:45.932Z,2.50
2018-11-12T09:55:14.926Z,2.90
2018-11-12T09:57:44.326Z,2.80
2018-11-12T10:00:14.378Z,4.73
2018-11-12T10:02:44.881Z,8.07
2018-11-12T10:05:13.416Z,3.73
2018-11-12T10:07:42.449Z,11.50
2018-11-12T10:10:54.198Z,4.10
2018-11-12T10:13:26.212Z,5.87
2018-11-12T10:15:53.187Z,3.40
2018-11-12T10:18:19.344Z,5.90
2018-11-12T10:20:50.732Z,16.53
2018-11-12T10:23:19.541Z,10.83
2018-11-12T10:25:47.775Z,11.17
2018-11-12T10:28:16.667Z,10.40
2018-11-12T10:30:52.626Z,9.00
2018-11-12T10:33:20.912Z,7.23
2018-11-12T10:35:49.471Z,8.20
2018-11-12T10:38:17.743Z,6.23
2018-11-12T10:40:46.027Z,8.63
2018-11-12T10:43:14.339Z,5.83
2018-11-12T10:45:42.560Z,5.40
2018-11-12T10:48:10.852Z,7.37
2018-11-12T10:50:39.124Z,14.83
2018-11-12T10:53:07.346Z,10.20
2018-11-12T10:55:41.371Z,8.83
2018-11-12T10:58:09.544Z,7.60
2018-11-12T11:00:43.225Z,10.33
2018-11-12T11:03:17.884Z,7.07
2018-11-12T11:05:50.753Z,8.80
2018-11-12T11:08:19.067Z,8.50
2018-11-12T11:10:47.269Z,13.93
2018-11-12T11:13:15.513Z,12.90
2018-11-12T11:15:43.774Z,9.10
2018-11-12T11:18:12.063Z,8.77
2018-11-12T11:20:47.332Z,11.50
2018-11-12T11:23:15.551Z,9.23
2018-11-12T11:25:49.605Z,9.97
2018-11-12T11:28:17.885Z,11.53
2018-11-12T11:30:46.190Z,9.90
2018-11-12T11:33:14.474Z,11.10
2018-11-12T11:35:42.757Z,12.60
2018-11-12T11:38:17.714Z,12.60
2018-11-12T11:40:46.062Z,10.70
2018-11-12T11:43:14.269Z,12.47
2018-11-12T11:45:42.587Z,8.80
2018-11-12T11:48:10.985Z,16.33
2018-11-12T11:50:39.247Z,15.80
2018-11-12T11:53:07.436Z,11.63
2018-11-12T11:55:35.687Z,12.93
2018-11-12T11:58:03.984Z,14.40
2018-11-12T12:00:32.273Z,11.50
2018-11-12T12:03:00.657Z,11.73
2018-11-12T12:05:29.361Z,12.23
2018-11-12T12:07:58.163Z,11.40
2018-11-12T12:10:26.410Z,11.33
2018-11-12T12:12:54.653Z,12.93
2018-11-12T12:15:23.702Z,13.43
2018-11-12T12:17:51.945Z,13.57
2018-11-12T12:20:21.477Z,12.83
2018-11-12T12:22:49.699Z,13.17
2018-11-12T12:25:18.578Z,10.07
2018-11-12T12:27:47.329Z,11.63
2018-11-12T12:30:20.543Z,14.60
2018-11-12T12:32:55.426Z,11.43
2018-11-12T12:35:23.824Z,12.53
2018-11-12T12:37:52.181Z,9.83
2018-11-12T12:40:21.484Z,10.93
2018-11-12T12:42:49.738Z,13.13
2018-11-12T12:45:19.408Z,8.70
2018-11-12T12:47:48.148Z,31.43
2018-11-12T12:50:17.147Z,19.20
2018-11-12T12:52:45.423Z,13.80
2018-11-12T12:55:14.639Z,12.83
2018-11-12T12:57:49.877Z,12.17
2018-11-12T13:00:21.852Z,11.00
2018-11-12T13:02:50.140Z,12.63
2018-11-12T13:05:18.379Z,11.17
2018-11-12T13:07:46.645Z,12.03
2018-11-12T13:10:16.251Z,12.10
2018-11-12T13:12:44.555Z,12.70
2018-11-12T13:15:14.028Z,16.63
2018-11-12T13:17:42.916Z,12.87
2018-11-12T13:20:12.972Z,14.93
2018-11-12T13:22:41.633Z,13.03
2018-11-12T13:25:10.333Z,14.13
2018-11-12T13:27:38.881Z,11.97
2018-11-12T13:30:09.301Z,15.30
2018-11-12T13:32:37.994Z,11.00
2018-11-12T13:35:07.395Z,14.47
2018-11-12T13:37:35.913Z,16.27
2018-11-12T13:40:05.664Z,17.40
2018-11-12T13:42:33.948Z,23.17
2018-11-12T13:45:02.316Z,20.73
2018-11-12T13:47:30.593Z,25.80
2018-11-12T13:49:58.875Z,30.60
2018-11-12T13:52:27.152Z,24.87
2018-11-12T13:54:55.431Z,30.37
2018-11-12T13:57:23.708Z,30.73
2018-11-12T13:59:51.917Z,35.30
2018-11-12T14:02:20.209Z,33.03
2018-11-12T14:04:48.467Z,33.63
2018-11-12T14:07:16.888Z,37.00
2018-11-12T14:09:45.093Z,33.30
2018-11-12T14:12:13.280Z,39.70
2018-11-12T14:14:41.600Z,30.90
2018-11-12T14:17:09.857Z,30.27
2018-11-12T14:19:38.153Z,38.53
2018-11-12T14:22:06.441Z,30.63
2018-11-12T14:24:34.655Z,26.67
2018-11-12T14:27:02.975Z,27.67
2018-11-12T14:29:31.257Z,26.73
2018-11-12T14:31:59.532Z,28.17
2018-11-12T14:34:27.825Z,28.50
2018-11-12T14:36:56.149Z,28.13
2018-11-12T14:39:24.519Z,33.10
2018-11-12T14:41:59.185Z,30.83
2018-11-12T14:44:27.719Z,30.00
2018-11-12T14:46:56.051Z,27.60
2018-11-12T14:49:24.341Z,33.37
2018-11-12T14:51:52.638Z,29.40
2018-11-12T14:54:21.944Z,28.17
2018-11-12T14:56:50.211Z,26.47
2018-11-12T14:59:18.554Z,28.23
2018-11-12T15:01:46.904Z,29.10
2018-11-12T15:04:15.110Z,24.60
2018-11-12T15:06:43.381Z,24.53
2018-11-12T15:09:24.954Z,19.07
2018-11-12T15:11:53.223Z,21.10
2018-11-12T15:14:21.441Z,21.10
2018-11-12T15:16:49.707Z,19.33
2018-11-12T15:19:17.962Z,20.93
2018-11-12T15:21:46.332Z,16.53
2018-11-12T15:24:14.635Z,18.90
2018-11-12T15:26:42.982Z,15.73
2018-11-12T15:29:11.267Z,19.90
2018-11-12T15:31:39.523Z,15.30
2018-11-12T15:34:07.819Z,15.40
2018-11-12T15:36:36.128Z,18.87
2018-11-12T15:39:07.237Z,19.27
2018-11-12T15:41:35.533Z,17.67
2018-11-12T15:44:04.205Z,17.37
2018-11-12T15:46:53.535Z,18.13
2018-11-12T15:49:21.839Z,16.13
2018-11-12T15:51:50.115Z,15.97
2018-11-12T15:54:18.417Z,14.63
2018-11-12T15:56:46.733Z,15.23
2018-11-12T15:59:15.003Z,20.70
2018-11-12T16:01:43.401Z,15.93
2018-11-12T16:04:11.641Z,14.10
2018-11-12T16:06:40.905Z,19.10
2018-11-12T16:09:12.735Z,14.30
2018-11-12T16:11:41.945Z,17.97
2018-11-12T16:14:11.089Z,14.30
2018-11-12T16:16:40.109Z,15.33
2018-11-12T16:19:09.854Z,14.77
2018-11-12T16:21:38.975Z,18.40
2018-11-12T16:24:08.212Z,14.40
2018-11-12T16:26:37.422Z,16.27
2018-11-12T16:29:06.313Z,15.97
2018-11-12T16:31:35.046Z,19.02
2018-11-12T16:34:04.147Z,18.62
2018-11-12T16:36:32.868Z,19.77
2018-11-12T16:39:01.597Z,19.23
2018-11-12T16:41:30.594Z,22.57
2018-11-12T16:43:59.132Z,17.03
2018-11-12T16:46:38.023Z,18.70
2018-11-12T16:49:06.727Z,17.30
2018-11-12T16:51:35.786Z,22.60
2018-11-12T16:54:04.723Z,22.13
2018-11-12T16:56:33.520Z,16.60
2018-11-12T16:59:02.261Z,18.90
2018-11-12T17:01:30.988Z,20.10
2018-11-12T17:04:11.700Z,14.98
2018-11-12T17:06:40.832Z,17.57
2018-11-12T17:09:13.143Z,14.13
2018-11-12T17:11:42.044Z,16.43
2018-11-12T17:14:10.783Z,17.27
2018-11-12T17:16:39.879Z,15.93
2018-11-12T17:19:09.182Z,13.60
2018-11-12T17:21:38.356Z,13.90
2018-11-12T17:24:07.134Z,16.47
2018-11-12T17:26:35.953Z,15.90
2018-11-12T17:29:04.844Z,16.67
2018-11-12T17:31:40.430Z,18.33
2018-11-12T17:34:09.665Z,16.43
2018-11-12T17:36:38.862Z,20.60
2018-11-12T17:39:08.696Z,19.70
2018-11-12T17:41:37.778Z,21.93
2018-11-12T17:44:07.916Z,19.37
2018-11-12T17:46:36.718Z,17.40
2018-11-12T17:49:05.585Z,16.40
2018-11-12T17:51:34.629Z,26.53
2018-11-12T17:54:03.324Z,19.33
2018-11-12T17:56:32.254Z,21.07
2018-11-12T17:59:00.935Z,19.23
2018-11-12T18:01:29.849Z,18.47
2018-11-12T18:03:58.656Z,22.00
2018-11-12T18:06:27.544Z,21.10
2018-11-12T18:08:56.154Z,21.77
2018-11-12T18:11:25.249Z,28.37
2018-11-12T18:13:54.180Z,20.77
2018-11-12T18:16:23.211Z,19.80
2018-11-12T18:18:52.254Z,23.70
2018-11-12T18:21:21.143Z,23.85
2018-11-12T18:23:49.886Z,23.12
2018-11-12T18:26:18.576Z,21.17
2018-11-12T18:28:47.173Z,21.90
2018-11-12T18:31:16.232Z,23.50
2018-11-12T18:33:44.948Z,33.67
2018-11-12T18:36:13.605Z,21.03
2018-11-12T18:38:42.625Z,18.07
2018-11-12T18:41:11.347Z,19.00
2018-11-12T18:43:40.351Z,23.77
2018-11-12T18:46:08.975Z,23.20
2018-11-12T18:48:37.987Z,19.70
2018-11-12T18:51:06.756Z,17.63
2018-11-12T18:53:35.606Z,21.00
2018-11-12T18:56:05.359Z,22.25
2018-11-12T18:58:34.246Z,21.77
2018-11-12T19:01:03.098Z,20.53
2018-11-12T19:03:32.360Z,22.77
2018-11-12T19:06:01.455Z,38.00
2018-11-12T19:08:36.079Z,34.20
2018-11-12T19:11:05.222Z,22.03
2018-11-12T19:13:33.906Z,22.70
2018-11-12T19:16:03.167Z,20.97
2018-11-12T19:18:32.232Z,20.60
2018-11-12T19:21:01.413Z,24.27
2018-11-12T19:23:30.248Z,19.17
2018-11-12T19:26:00.351Z,18.87
2018-11-12T19:28:29.433Z,20.73
2018-11-12T19:30:58.322Z,19.57
2018-11-12T19:33:27.188Z,26.73
2018-11-12T19:35:55.831Z,20.80
2018-11-12T19:38:24.723Z,25.97
2018-11-12T19:40:53.794Z,83.73
2018-11-12T19:43:22.575Z,31.37
2018-11-12T19:45:51.536Z,22.90
2018-11-12T19:48:20.455Z,23.87
2018-11-12T19:50:49.580Z,23.40
2018-11-12T19:53:18.469Z,26.07
2018-11-12T19:55:47.329Z,28.60
2018-11-12T19:58:16.458Z,23.53
2018-11-12T20:00:45.523Z,26.30
2018-11-12T20:03:14.542Z,27.57
2018-11-12T20:05:43.431Z,27.60
2018-11-12T20:08:12.456Z,25.83
2018-11-12T20:10:41.429Z,24.83
2018-11-12T20:13:10.373Z,27.57
2018-11-12T20:15:40.067Z,25.10
2018-11-12T20:18:08.699Z,31.67
2018-11-12T20:20:37.485Z,35.97
2018-11-12T20:23:06.517Z,34.93
2018-11-12T20:25:35.436Z,23.80
2018-11-12T20:28:04.099Z,33.00
2018-11-12T20:30:38.422Z,33.95
2018-11-12T20:33:07.469Z,38.43
2018-11-12T20:35:36.645Z,32.10
2018-11-12T20:38:05.650Z,35.13
2018-11-12T20:40:34.561Z,38.05
2018-11-12T20:43:03.640Z,37.57
2018-11-12T20:45:50.184Z,38.43
2018-11-12T20:48:20.081Z,41.30
2018-11-12T20:50:49.517Z,37.37
2018-11-12T20:53:18.305Z,40.92
2018-11-12T20:55:47.356Z,38.67
2018-11-12T20:58:16.288Z,35.43
2018-11-12T21:00:45.348Z,37.90
2018-11-12T21:03:13.987Z,45.03
2018-11-12T21:05:42.866Z,41.87
2018-11-12T21:08:11.687Z,37.27
2018-11-12T21:10:40.528Z,39.43
2018-11-12T21:13:09.542Z,44.27
2018-11-12T21:15:38.614Z,32.90
2018-11-12T21:18:07.547Z,37.57
2018-11-12T21:20:36.422Z,37.87
2018-11-12T21:23:05.830Z,37.47
2018-11-12T21:25:34.595Z,35.03
2018-11-12T21:28:03.645Z,35.80
2018-11-12T21:30:32.810Z,36.03
2018-11-12T21:33:04.741Z,32.97
2018-11-12T21:35:33.804Z,38.30
2018-11-12T21:38:10.187Z,38.67
2018-11-12T21:40:39.026Z,35.10
2018-11-12T21:43:08.138Z,37.85
2018-11-12T21:45:37.489Z,35.73
2018-11-12T21:48:06.987Z,46.08
2018-11-12T21:50:36.258Z,36.97
2018-11-12T21:53:05.936Z,42.47
2018-11-12T21:55:35.240Z,38.83
2018-11-12T22:00:37.691Z,33.97
2018-11-12T22:03:13.589Z,34.17
2018-11-12T22:05:42.430Z,31.90
2018-11-12T22:08:11.427Z,39.13
2018-11-12T22:10:40.349Z,30.77
2018-11-12T22:13:10.023Z,36.83
2018-11-12T22:15:39.481Z,36.28
2018-11-12T22:18:07.861Z,34.95
2018-11-12T22:20:36.833Z,42.38
2018-11-12T22:23:06.373Z,39.78
2018-11-12T22:25:41.164Z,49.73
2018-11-12T22:28:10.136Z,38.63
2018-11-12T22:30:39.149Z,33.17
2018-11-12T22:33:08.139Z,40.52
2018-11-12T22:35:36.619Z,37.23
2018-11-12T22:38:05.699Z,45.73
2018-11-12T22:40:34.075Z,40.00
2018-11-12T22:43:03.025Z,42.45
2018-11-12T22:45:31.415Z,40.05
2018-11-12T22:48:00.557Z,40.28
2018-11-12T22:50:29.355Z,42.53
2018-11-12T22:52:58.130Z,46.98
2018-11-12T22:55:27.102Z,43.63
2018-11-12T22:57:55.911Z,39.80
2018-11-12T23:00:31.287Z,44.95
2018-11-12T23:03:00.511Z,45.05
2018-11-12T23:05:34.936Z,45.57
2018-11-12T23:08:03.923Z,46.58
2018-11-12T23:10:32.711Z,46.30
2018-11-12T23:13:01.540Z,38.45
2018-11-12T23:15:30.143Z,49.63
2018-11-12T23:17:59.114Z,52.78
2018-11-12T23:20:28.477Z,46.63
2018-11-12T23:22:57.580Z,54.38
2018-11-12T23:25:26.505Z,53.23
2018-11-12T23:28:01.777Z,49.77
2018-11-12T23:30:30.156Z,50.15
2018-11-12T23:32:59.289Z,50.15
2018-11-12T23:35:27.672Z,53.70
2018-11-12T23:37:56.870Z,53.30
2018-11-12T23:40:25.416Z,50.52
2018-11-12T23:42:54.651Z,53.55
2018-11-12T23:45:23.721Z,56.75
2018-11-12T23:47:53.259Z,53.52
2018-11-12T23:50:23.170Z,50.80
2018-11-12T23:52:53.701Z,51.45
2018-11-12T23:55:23.104Z,61.53
2018-11-12T23:57:52.712Z,55.52
